Time;durP1;ratioP1;P1;durP2;ratioP2;P2;SDS_P1;SDS_P2;PMS_P1;PMS_P2;Temp;Humidity;BMP_temperature;BMP_pressure;BME280_temperature;BME280_humidity;BME280_pressure;Samples;Min_cycle;Max_cycle;Signal;HPM_P1;HPM_P2
2023/08/20 00:01:44;;;;;;;8.90;5.35;;;;;;;23.35;58.19;95030.56;4977560;28;21166;-81
2023/08/20 00:04:10;;;;;;;7.93;4.80;;;;;;;23.28;58.27;95004.03;4987036;28;20460;-80
2023/08/20 00:06:39;;;;;;;6.38;4.57;;;;;;;23.52;58.32;95044.38;4964177;28;20420;-81
2023/08/20 00:09:07;;;;;;;5.75;4.78;;;;;;;23.45;57.54;95011.63;4964142;28;20413;-80
2023/08/20 00:11:34;;;;;;;8.63;4.72;;;;;;;23.25;58.04;94983.13;4981181;28;20409;-81
2023/08/20 00:14:00;;;;;;;7.43;4.87;;;;;;;23.22;57.52;94970.25;4981474;28;20437;-79
2023/08/20 00:16:28;;;;;;;6.32;4.78;;;;;;;23.97;57.57;95086.00;4981399;28;20410;-81
2023/08/20 00:18:54;;;;;;;6.63;4.70;;;;;;;23.11;57.54;94953.47;4978506;28;20416;-80
2023/08/20 00:21:23;;;;;;;8.43;4.93;;;;;;;23.48;57.12;94998.41;4977772;28;20420;-81
2023/08/20 00:23:49;;;;;;;7.50;5.15;;;;;;;24.02;56.85;95084.06;4964582;28;20412;-81
2023/08/20 00:26:15;;;;;;;7.68;4.63;;;;;;;23.09;57.16;94947.56;4977218;28;20517;-81
2023/08/20 00:28:40;;;;;;;7.38;5.43;;;;;;;23.61;57.13;95035.38;4963854;28;20177;-81
2023/08/20 00:31:06;;;;;;;9.70;5.03;;;;;;;23.08;56.88;94950.56;4963670;28;20629;-80
2023/08/20 00:33:32;;;;;;;8.63;4.93;;;;;;;23.17;57.26;94959.59;4981343;28;20424;-81
2023/08/20 00:35:57;;;;;;;6.55;4.63;;;;;;;22.90;56.97;94920.69;4966465;28;21229;-81
2023/08/20 00:38:23;;;;;;;6.17;4.43;;;;;;;23.40;57.37;95009.81;4982517;28;20410;-81
2023/08/20 00:40:48;;;;;;;6.90;4.63;;;;;;;23.05;57.46;94956.50;4986344;28;20451;-81
2023/08/20 00:43:14;;;;;;;7.13;4.97;;;;;;;23.58;56.85;95014.47;4964455;28;20425;-81
2023/08/20 00:45:43;;;;;;;9.27;5.33;;;;;;;23.23;56.90;94955.75;4985761;28;20926;-81
2023/08/20 00:48:09;;;;;;;5.80;4.80;;;;;;;23.54;57.10;95015.31;4984223;28;20478;-80
2023/08/20 00:50:37;;;;;;;7.00;5.00;;;;;;;23.61;57.40;95034.59;4984297;28;20413;-82
2023/08/20 00:53:03;;;;;;;7.95;4.78;;;;;;;23.55;57.34;95031.16;4966092;28;20934;-80
2023/08/20 00:55:28;;;;;;;8.32;4.72;;;;;;;23.08;57.11;94961.31;4985883;28;20169;-81
2023/08/20 00:57:54;;;;;;;9.23;4.80;;;;;;;23.41;57.42;95016.00;4986234;28;20420;-81
2023/08/20 01:00:23;;;;;;;8.93;5.28;;;;;;;23.55;57.57;95033.03;4985532;28;20432;-81
2023/08/20 01:02:48;;;;;;;6.88;5.13;;;;;;;23.53;57.43;95040.59;4989151;28;20447;-80
2023/08/20 01:05:16;;;;;;;8.13;5.10;;;;;;;23.35;57.51;95006.41;4984423;28;20455;-81
2023/08/20 01:08:01;;;;;;;7.72;5.20;;;;;;;23.87;57.21;95084.25;4983969;28;20440;-80
2023/08/20 01:10:46;;;;;;;6.00;4.78;;;;;;;23.86;57.34;95081.88;4986591;28;20228;-81
2023/08/20 01:13:11;;;;;;;6.50;5.13;;;;;;;23.32;57.50;95007.75;4984508;28;20496;-80
2023/08/20 01:15:37;;;;;;;12.05;5.13;;;;;;;23.56;57.46;95040.81;4968240;28;20264;-80
2023/08/20 01:18:03;;;;;;;8.57;4.78;;;;;;;23.48;57.94;95046.00;4963559;28;20416;-81
2023/08/20 01:20:39;;;;;;;7.40;5.03;;;;;;;23.35;57.96;95031.38;4967067;28;20433;-79
2023/08/20 01:23:13;;;;;;;8.88;5.32;;;;;;;23.55;58.34;95074.16;4978458;28;20909;-80
2023/08/20 01:25:59;;;;;;;7.60;5.40;;;;;;;23.12;58.15;94998.03;4982764;28;20503;-80
2023/08/20 01:28:30;;;;;;;9.98;5.60;;;;;;;22.75;58.37;94936.94;4975721;28;20428;-80
2023/08/20 01:30:58;;;;;;;11.10;5.87;;;;;;;23.28;58.31;95009.41;4993085;28;20451;-81
2023/08/20 01:33:25;;;;;;;6.97;5.43;;;;;;;23.30;58.46;95005.34;4993022;28;20423;-80
2023/08/20 01:35:52;;;;;;;8.23;5.90;;;;;;;23.77;57.98;95072.84;4993288;28;20541;-80
2023/08/20 01:38:18;;;;;;;9.37;5.40;;;;;;;23.16;58.02;94966.84;4993186;28;20463;-80
2023/08/20 01:40:43;;;;;;;7.90;5.93;;;;;;;22.68;58.07;94906.13;4992813;28;20542;-80
2023/08/20 01:43:09;;;;;;;8.80;5.80;;;;;;;22.93;58.22;94938.88;4993719;28;20470;-80
2023/08/20 01:45:36;;;;;;;7.43;5.60;;;;;;;22.82;58.44;94925.88;4992062;28;20498;-82
2023/08/20 01:48:03;;;;;;;8.07;5.72;;;;;;;23.19;57.89;94977.00;4992874;28;20935;-81
2023/08/20 01:50:29;;;;;;;9.30;6.17;;;;;;;23.58;58.08;95033.28;4993018;28;20412;-81
2023/08/20 01:52:55;;;;;;;6.75;5.65;;;;;;;23.31;58.07;94988.16;4992921;28;20415;-81
2023/08/20 01:55:20;;;;;;;8.00;5.67;;;;;;;23.09;58.34;94958.31;4975262;28;20412;-80
2023/08/20 01:57:46;;;;;;;8.77;5.70;;;;;;;22.76;58.56;94902.84;4992894;28;20431;-80
2023/08/20 02:00:12;;;;;;;10.00;5.90;;;;;;;22.80;58.45;94918.09;4992646;28;20428;-80
2023/08/20 02:02:37;;;;;;;9.68;5.82;;;;;;;22.87;58.30;94917.75;4992891;28;20439;-80
2023/08/20 02:05:03;;;;;;;10.93;6.10;;;;;;;22.82;57.90;94888.28;4992480;28;20930;-80
2023/08/20 02:07:29;;;;;;;9.73;5.78;;;;;;;23.25;58.51;94978.56;4993144;28;20418;-80
2023/08/20 02:09:54;;;;;;;8.23;5.63;;;;;;;22.87;58.22;94904.34;4993042;28;20408;-80
2023/08/20 02:12:20;;;;;;;8.80;6.00;;;;;;;23.23;58.44;94982.59;4992871;28;20982;-80
2023/08/20 02:14:49;;;;;;;9.20;5.30;;;;;;;22.79;58.31;94883.50;4992301;28;20446;-80
2023/08/20 02:17:14;;;;;;;7.80;5.70;;;;;;;23.77;58.40;95036.00;4992250;28;20422;-81
2023/08/20 02:19:40;;;;;;;9.57;5.97;;;;;;;22.93;57.93;94893.25;4991034;28;20525;-81
2023/08/20 02:22:06;;;;;;;7.40;5.60;;;;;;;22.95;58.14;94904.50;4975005;28;20942;-80
2023/08/20 02:24:31;;;;;;;9.20;6.35;;;;;;;22.90;58.02;94890.34;4992464;28;20471;-80
2023/08/20 02:26:59;;;;;;;9.13;6.35;;;;;;;22.76;57.93;94876.81;4983405;28;20452;-80
2023/08/20 02:29:24;;;;;;;11.15;5.57;;;;;;;22.95;58.63;94927.88;4985992;28;20185;-81
2023/08/20 02:31:53;;;;;;;11.73;7.83;;;;;;;23.22;59.06;94981.00;4984663;28;20413;-81
2023/08/20 02:34:19;;;;;;;9.25;7.22;;;;;;;23.07;59.71;94984.69;4982118;28;20421;-81
2023/08/20 02:36:44;;;;;;;8.77;7.00;;;;;;;23.09;59.68;94979.03;4968290;28;20518;-81
2023/08/20 02:39:10;;;;;;;9.50;6.50;;;;;;;23.09;60.17;94989.78;4980113;28;20185;-81
2023/08/20 02:41:38;;;;;;;10.15;5.55;;;;;;;23.18;60.26;94998.78;4982368;28;20217;-81
2023/08/20 02:44:04;;;;;;;9.80;6.72;;;;;;;22.65;60.26;94922.81;4982796;28;20426;-81
2023/08/20 02:46:31;;;;;;;7.82;6.03;;;;;;;22.61;60.78;94930.63;4963697;28;20432;-81
2023/08/20 02:49:02;;;;;;;7.50;6.07;;;;;;;23.03;60.44;94997.06;4965323;28;20170;-81
2023/08/20 02:51:28;;;;;;;11.35;6.63;;;;;;;22.54;61.07;94935.53;4961007;28;20517;-81
2023/08/20 02:53:53;;;;;;;30.03;18.90;;;;;;;22.76;61.60;94992.22;4978989;28;20508;-81
2023/08/20 02:56:20;;;;;;;16.67;11.47;;;;;;;22.60;61.78;94969.28;4982569;28;20438;-81
2023/08/20 02:58:45;;;;;;;8.77;6.20;;;;;;;22.49;61.87;94951.66;4978708;28;21218;-81
2023/08/20 03:01:19;;;;;;;12.52;6.85;;;;;;;22.59;61.88;94971.16;4980307;28;20190;-81
2023/08/20 03:03:44;;;;;;;18.73;9.52;;;;;;;22.19;62.23;94924.03;4979195;28;20570;-81
2023/08/20 03:06:10;;;;;;;10.27;5.97;;;;;;;23.01;62.29;95058.31;4984273;28;20178;-81
2023/08/20 03:08:35;;;;;;;10.23;6.80;;;;;;;22.62;63.17;95017.31;4976570;28;20406;-81
2023/08/20 03:11:02;;;;;;;12.57;7.07;;;;;;;22.46;62.92;95011.28;4981191;28;20503;-80
2023/08/20 03:13:27;;;;;;;12.90;8.48;;;;;;;22.33;63.54;95003.84;4980440;28;20440;-82
2023/08/20 03:15:53;;;;;;;8.47;5.83;;;;;;;22.12;63.76;94990.63;4978545;28;21012;-81
2023/08/20 03:18:18;;;;;;;17.63;7.10;;;;;;;21.86;64.49;94975.75;4979318;28;20468;-81
2023/08/20 03:20:44;;;;;;;11.52;6.97;;;;;;;21.53;64.92;94921.03;4964171;28;20352;-81
2023/08/20 03:23:09;;;;;;;9.50;6.63;;;;;;;22.00;64.94;95005.44;4980958;28;20795;-81
2023/08/20 03:25:35;;;;;;;11.67;7.17;;;;;;;21.40;64.84;94916.28;4983400;28;20939;-80
2023/08/20 03:28:00;;;;;;;10.77;6.35;;;;;;;21.54;65.32;94956.63;4992306;28;20170;-81
2023/08/20 03:30:31;;;;;;;9.15;5.90;;;;;;;21.37;65.33;94916.81;4992214;28;20177;-81
2023/08/20 03:32:57;;;;;;;9.48;5.72;;;;;;;22.14;65.37;95030.56;4990481;28;20173;-82
2023/08/20 03:35:23;;;;;;;10.80;6.83;;;;;;;22.10;65.53;95041.03;4990964;28;20474;-81
2023/08/20 03:37:48;;;;;;;11.53;6.90;;;;;;;21.26;65.87;94929.47;4990747;28;20803;-81
2023/08/20 03:40:15;;;;;;;12.17;6.37;;;;;;;21.14;66.60;94922.81;4973042;28;20424;-81
2023/08/20 03:42:40;;;;;;;9.43;6.60;;;;;;;21.84;66.47;95020.78;4991986;28;20170;-81
2023/08/20 03:45:06;;;;;;;11.77;7.50;;;;;;;21.09;66.79;94907.59;4957079;28;20428;-81
2023/08/20 03:47:32;;;;;;;13.40;7.83;;;;;;;21.16;66.81;94924.16;4973124;28;20807;-81
2023/08/20 03:49:58;;;;;;;29.15;18.52;;;;;;;21.07;67.09;94905.16;4974266;28;20416;-81
2023/08/20 03:52:24;;;;;;;19.10;12.10;;;;;;;21.57;66.96;94982.88;4990653;28;20415;-81
2023/08/20 03:54:50;;;;;;;19.23;11.90;;;;;;;20.98;67.38;94900.66;4972786;28;20431;-80
2023/08/20 03:57:16;;;;;;;15.25;11.13;;;;;;;20.88;67.09;94888.13;4972180;28;20412;-81
2023/08/20 03:59:41;;;;;;;13.70;8.67;;;;;;;21.20;67.21;94945.81;4989751;28;20960;-81
2023/08/20 04:02:07;;;;;;;10.37;6.97;;;;;;;21.60;67.45;95007.28;4990764;28;20963;-81
2023/08/20 04:04:32;;;;;;;11.90;6.93;;;;;;;21.93;67.16;95040.59;4991795;28;21761;-81
2023/08/20 04:06:58;;;;;;;13.27;6.82;;;;;;;21.22;67.34;94941.81;4991762;28;20276;-81
2023/08/20 04:09:24;;;;;;;11.30;6.93;;;;;;;21.55;67.44;94985.03;4991828;28;20546;-81
2023/08/20 04:11:50;;;;;;;10.52;7.57;;;;;;;21.96;67.47;95045.41;4991650;28;20181;-81
2023/08/20 04:14:15;;;;;;;13.55;7.10;;;;;;;21.21;67.36;94915.28;4991596;28;20200;-80
2023/08/20 04:16:42;;;;;;;9.35;6.53;;;;;;;21.17;67.38;94903.53;4991429;28;20173;-81
2023/08/20 04:19:08;;;;;;;9.20;6.68;;;;;;;22.15;67.39;95054.41;4974065;28;20260;-81
2023/08/20 04:21:33;;;;;;;9.43;5.95;;;;;;;21.18;66.65;94879.19;4974315;28;20667;-81
2023/08/20 04:23:59;;;;;;;15.77;6.43;;;;;;;21.59;66.66;94946.72;4991545;28;20224;-81
2023/08/20 04:26:24;;;;;;;18.60;6.93;;;;;;;21.69;66.69;94949.34;4981153;28;20219;-81
2023/08/20 04:28:50;;;;;;;11.95;6.72;;;;;;;21.77;66.71;94958.66;4991118;28;20260;-81
2023/08/20 04:31:16;;;;;;;20.70;6.00;;;;;;;21.89;66.37;94956.41;4991096;28;20188;-81
2023/08/20 04:33:42;;;;;;;10.80;6.28;;;;;;;22.53;66.26;95025.16;4991047;28;20181;-81
2023/08/20 04:36:08;;;;;;;10.50;7.15;;;;;;;22.15;65.16;94925.69;4989238;28;20173;-81
2023/08/20 04:38:33;;;;;;;13.80;6.10;;;;;;;22.93;64.55;95000.66;4990728;28;20231;-81
2023/08/20 04:41:02;;;;;;;14.07;6.63;;;;;;;22.96;63.43;94972.44;4989226;28;20205;-81
2023/08/20 04:43:28;;;;;;;8.95;5.35;;;;;;;23.09;62.90;94958.31;4991252;28;20877;-82
2023/08/20 04:45:53;;;;;;;12.55;6.70;;;;;;;23.32;62.49;94970.16;4991235;28;20187;-81
2023/08/20 04:48:19;;;;;;;8.93;6.68;;;;;;;23.72;62.25;95006.47;4991508;28;20220;-81
2023/08/20 04:50:44;;;;;;;24.98;6.60;;;;;;;23.80;61.25;95008.50;4991267;28;20176;-81
2023/08/20 04:53:10;;;;;;;10.98;6.28;;;;;;;23.61;61.13;94962.00;4989998;28;20177;-82
2023/08/20 04:55:35;;;;;;;10.45;6.25;;;;;;;23.38;61.30;94917.13;4990980;28;20177;-81
2023/08/20 04:58:02;;;;;;;11.38;6.35;;;;;;;24.42;61.04;95066.56;4991127;28;20176;-81
2023/08/20 05:00:28;;;;;;;11.52;6.28;;;;;;;24.00;60.73;94985.91;4989124;28;20223;-82
2023/08/20 05:02:55;;;;;;;22.70;14.40;;;;;;;23.82;60.46;94936.41;4991076;28;20205;-82
2023/08/20 05:05:22;;;;;;;13.40;7.22;;;;;;;24.49;60.02;95011.56;4989974;28;20569;-82
2023/08/20 05:07:47;;;;;;;26.50;19.05;;;;;;;24.65;59.86;95012.94;4991141;28;20176;-82
2023/08/20 05:10:13;;;;;;;15.43;8.40;;;;;;;24.92;59.38;95031.84;4991030;28;20169;-82
2023/08/20 05:12:38;;;;;;;18.38;11.48;;;;;;;25.06;57.93;95015.72;4990909;28;20177;-82
2023/08/20 05:15:04;;;;;;;16.85;8.50;;;;;;;25.61;57.68;95064.28;4991128;28;20184;-82
2023/08/20 05:17:32;;;;;;;9.07;6.97;;;;;;;25.06;57.40;94959.94;4991008;28;20223;-82
2023/08/20 05:19:58;;;;;;;17.40;9.32;;;;;;;25.59;56.53;95018.75;4989077;28;20181;-82
2023/08/20 05:22:25;;;;;;;8.88;7.15;;;;;;;25.83;56.45;95035.50;4994160;28;20176;-81
2023/08/20 05:24:52;;;;;;;10.60;8.23;;;;;;;26.01;56.08;95027.59;4994301;28;20173;-82
2023/08/20 05:27:18;;;;;;;11.82;6.35;;;;;;;26.01;55.05;94987.09;4994260;28;20217;-82
2023/08/20 05:29:44;;;;;;;8.35;6.68;;;;;;;26.35;53.83;95009.00;4992641;28;20591;-82
2023/08/20 05:32:09;;;;;;;17.00;10.48;;;;;;;26.60;53.21;95027.31;4976512;28;20173;-82
2023/08/20 05:34:35;;;;;;;22.70;16.45;;;;;;;26.78;52.78;95033.63;4976748;28;20177;-83
2023/08/20 05:37:02;;;;;;;15.07;11.63;;;;;;;26.45;53.06;94968.28;4994582;28;20176;-82
2023/08/20 05:39:30;;;;;;;19.27;11.30;;;;;;;26.84;53.07;95005.34;4959130;28;20215;-82
2023/08/20 05:41:55;;;;;;;11.13;6.95;;;;;;;26.46;52.26;94923.16;4990298;28;20235;-82
2023/08/20 05:44:23;;;;;;;12.57;6.90;;;;;;;27.19;51.44;95041.50;4992172;28;20252;-82
2023/08/20 05:46:49;;;;;;;17.20;6.50;;;;;;;27.32;52.93;95046.03;4976459;28;20188;-83
2023/08/20 05:49:18;;;;;;;11.18;5.85;;;;;;;27.22;52.05;95003.03;4976560;28;20165;-82
2023/08/20 05:51:44;;;;;;;8.65;6.07;;;;;;;27.13;51.51;94967.06;4994085;28;20248;-82
2023/08/20 05:54:10;;;;;;;12.90;6.95;;;;;;;27.95;51.49;95071.09;4976013;28;20264;-82
2023/08/20 05:56:36;;;;;;;11.23;6.53;;;;;;;27.92;50.65;95052.78;4993600;28;20468;-82
2023/08/20 05:59:02;;;;;;;11.05;5.18;;;;;;;27.82;50.46;95004.34;4993629;28;20284;-82
2023/08/20 06:01:27;;;;;;;12.50;8.35;;;;;;;28.21;49.93;95041.38;4993787;28;20228;-82
2023/08/20 06:03:54;;;;;;;7.05;5.30;;;;;;;28.40;49.38;95050.78;4993668;28;20208;-82
2023/08/20 06:06:21;;;;;;;12.98;6.15;;;;;;;27.86;49.48;94957.38;4960151;28;20173;-82
2023/08/20 06:08:47;;;;;;;8.75;6.72;;;;;;;28.43;48.51;95041.25;4976112;28;20188;-82
2023/08/20 06:11:12;;;;;;;11.00;5.93;;;;;;;28.01;49.17;94969.69;4993774;28;20169;-82
2023/08/20 06:13:38;;;;;;;11.10;6.25;;;;;;;28.65;47.99;95045.69;4993298;28;20235;-81
2023/08/20 06:16:03;;;;;;;8.52;5.35;;;;;;;28.50;48.12;95020.69;4993757;28;20184;-82
2023/08/20 06:18:29;;;;;;;8.68;6.18;;;;;;;28.76;47.64;95069.47;4993119;28;20223;-80
2023/08/20 06:20:55;;;;;;;6.43;5.43;;;;;;;28.43;48.15;95022.28;4993345;28;20235;-80
2023/08/20 06:23:21;;;;;;;7.68;5.35;;;;;;;28.78;48.37;95096.25;4992954;28;20177;-82
2023/08/20 06:25:46;;;;;;;7.35;5.35;;;;;;;28.53;48.56;95041.72;4992946;28;20173;-81
2023/08/20 06:28:12;;;;;;;9.57;5.38;;;;;;;28.74;49.05;95051.91;4986691;28;20212;-82
2023/08/20 06:30:37;;;;;;;8.70;5.88;;;;;;;29.04;47.68;95060.97;4982630;28;20216;-82
2023/08/20 06:33:04;;;;;;;12.25;5.65;;;;;;;29.31;48.15;95065.22;4984108;28;20644;-81
2023/08/20 06:35:30;;;;;;;6.40;5.57;;;;;;;29.32;46.40;95055.97;4986495;28;20247;-82
2023/08/20 06:37:59;;;;;;;7.45;5.30;;;;;;;28.88;46.19;94972.03;4982198;28;20259;-83
2023/08/20 06:40:30;;;;;;;9.80;6.00;;;;;;;29.55;46.30;95047.28;4961910;28;20198;-82
2023/08/20 06:42:56;;;;;;;9.23;5.53;;;;;;;29.32;47.12;94977.28;4980879;28;20185;-81
2023/08/20 06:45:22;;;;;;;8.48;5.47;;;;;;;29.80;45.40;95012.19;4979298;28;20169;-82
2023/08/20 06:47:47;;;;;;;7.82;5.53;;;;;;;29.70;45.07;94983.50;4983247;28;20633;-80
2023/08/20 06:50:13;;;;;;;8.85;5.55;;;;;;;30.19;44.62;95073.47;4982989;28;20247;-80
2023/08/20 06:52:38;;;;;;;9.98;5.70;;;;;;;29.73;44.96;95064.28;4983069;28;20554;-79
2023/08/20 06:55:04;;;;;;;7.57;5.55;;;;;;;29.58;45.10;95027.59;4984425;28;20249;-80
2023/08/20 06:57:30;;;;;;;15.10;5.57;;;;;;;29.31;44.52;94956.72;4986166;28;20173;-83
2023/08/20 06:59:55;;;;;;;7.38;5.05;;;;;;;29.58;44.77;94992.34;4965869;28;20201;-78
2023/08/20 07:02:21;;;;;;;10.95;5.22;;;;;;;29.93;44.31;95027.41;4976106;28;20179;-77
2023/08/20 07:04:46;;;;;;;6.70;4.78;;;;;;;30.22;43.96;95029.34;4955696;28;20239;-79
2023/08/20 07:07:12;;;;;;;7.55;5.32;;;;;;;30.25;42.77;95056.66;4982909;28;20185;-77
2023/08/20 07:09:39;;;;;;;7.32;4.90;;;;;;;29.94;42.84;95020.91;4981655;28;20169;-78
2023/08/20 07:12:05;;;;;;;7.40;5.05;;;;;;;29.95;43.09;95019.78;4985261;28;20176;-79
2023/08/20 07:14:30;;;;;;;7.90;4.43;;;;;;;30.10;43.49;95029.28;4986752;28;20177;-80
2023/08/20 07:16:56;;;;;;;7.75;5.18;;;;;;;30.44;42.55;95096.19;4985925;28;20239;-78
2023/08/20 07:19:22;;;;;;;5.55;3.85;;;;;;;30.11;42.75;95098.75;4983315;28;20193;-78
2023/08/20 07:21:48;;;;;;;10.93;4.72;;;;;;;29.32;43.46;94955.59;4985700;28;20200;-78
2023/08/20 07:24:13;;;;;;;7.00;4.72;;;;;;;30.21;42.51;95053.00;4979138;28;20189;-77
2023/08/20 07:26:39;;;;;;;6.32;4.40;;;;;;;29.88;41.80;95023.00;4984857;28;20664;-77
2023/08/20 07:29:05;;;;;;;6.18;4.45;;;;;;;29.50;42.94;95025.75;4986844;28;20183;-77
2023/08/20 07:31:32;;;;;;;6.38;4.43;;;;;;;29.10;43.28;94989.16;4987195;28;20176;-78
2023/08/20 07:34:00;;;;;;;6.40;4.18;;;;;;;29.57;42.96;95028.75;4984984;28;20208;-77
2023/08/20 07:36:26;;;;;;;6.38;4.45;;;;;;;30.49;42.10;95091.34;4979175;28;20178;-77
2023/08/20 07:38:53;;;;;;;7.65;5.18;;;;;;;30.30;42.27;94996.69;4984842;28;20177;-78
2023/08/20 07:41:22;;;;;;;6.13;4.60;;;;;;;31.05;41.02;95070.06;4981136;28;20197;-78
2023/08/20 07:43:49;;;;;;;5.07;4.10;;;;;;;31.02;39.59;95003.56;4980629;28;20186;-77
2023/08/20 07:46:16;;;;;;;7.55;3.92;;;;;;;31.27;39.04;95018.03;4980165;28;20175;-80
2023/08/20 07:48:42;;;;;;;6.15;4.85;;;;;;;31.29;38.76;95028.56;4973248;28;20227;-78
2023/08/20 07:51:08;;;;;;;6.93;4.00;;;;;;;30.53;39.86;95029.75;4975767;28;20182;-74
2023/08/20 07:53:35;;;;;;;6.53;3.85;;;;;;;29.65;41.33;94967.41;4971560;28;20189;-77
2023/08/20 07:56:01;;;;;;;6.78;4.28;;;;;;;29.62;41.64;94977.00;4977849;28;20226;-78
2023/08/20 07:58:29;;;;;;;8.88;4.32;;;;;;;30.04;41.56;95041.44;4974254;28;20177;-79
2023/08/20 08:00:55;;;;;;;5.75;3.80;;;;;;;30.01;41.23;95019.25;4974232;28;20677;-79
2023/08/20 08:03:21;;;;;;;8.77;4.38;;;;;;;29.80;41.59;94985.03;4971298;28;20174;-79
2023/08/20 08:05:48;;;;;;;6.22;3.85;;;;;;;29.85;40.87;94971.25;4976730;28;20172;-76
2023/08/20 08:08:17;;;;;;;5.35;4.03;;;;;;;30.08;41.23;95062.22;4950311;28;20173;-77
2023/08/20 08:10:46;;;;;;;5.65;4.25;;;;;;;29.88;42.00;94981.47;4964683;28;20632;-78
2023/08/20 08:13:12;;;;;;;7.63;4.57;;;;;;;30.01;40.99;95004.91;4981427;28;20301;-78
2023/08/20 08:15:39;;;;;;;8.38;4.07;;;;;;;30.49;40.60;95049.75;4979446;28;20177;-78
2023/08/20 08:18:05;;;;;;;4.97;3.90;;;;;;;30.39;40.92;95018.34;4972386;28;20657;-78
2023/08/20 08:20:31;;;;;;;6.35;4.35;;;;;;;30.48;40.29;95027.22;4976218;28;20213;-78
2023/08/20 08:22:56;;;;;;;6.38;3.92;;;;;;;30.42;40.96;95025.84;4963543;28;20189;-78
2023/08/20 08:25:22;;;;;;;5.85;4.22;;;;;;;30.68;39.80;95059.06;4972400;28;20165;-78
2023/08/20 08:27:48;;;;;;;4.60;3.78;;;;;;;30.33;40.21;95053.09;4981647;28;20220;-78
2023/08/20 08:30:14;;;;;;;7.43;4.40;;;;;;;30.78;40.66;95095.94;4988330;28;20181;-77
2023/08/20 08:32:40;;;;;;;5.82;4.20;;;;;;;30.60;39.69;95051.78;4985846;28;20178;-78
2023/08/20 08:35:06;;;;;;;7.00;4.38;;;;;;;30.81;39.51;95064.56;4984042;28;20668;-84
2023/08/20 08:37:32;;;;;;;5.65;3.63;;;;;;;30.59;39.32;95052.91;4964816;28;20621;-84
2023/08/20 08:39:58;;;;;;;6.60;3.88;;;;;;;30.11;39.23;94999.06;4983933;28;20276;-78
2023/08/20 08:42:24;;;;;;;9.88;4.25;;;;;;;30.47;39.46;95058.25;4984469;28;20197;-78
2023/08/20 08:44:52;;;;;;;6.53;3.72;;;;;;;30.10;39.68;94981.16;4985055;28;20181;-78
2023/08/20 08:47:19;;;;;;;7.05;3.90;;;;;;;30.59;39.92;95077.38;4988167;28;20181;-76
2023/08/20 08:49:47;;;;;;;7.00;3.85;;;;;;;31.03;39.07;95096.84;4968362;28;20196;-80
2023/08/20 08:52:13;;;;;;;3.75;3.28;;;;;;;30.59;36.44;95036.59;4984114;28;20309;-77
2023/08/20 08:54:39;;;;;;;8.13;3.50;;;;;;;31.04;36.02;95103.88;4965879;28;20723;-78
2023/08/20 08:57:05;;;;;;;6.13;4.07;;;;;;;30.05;36.44;94997.66;4987786;28;20177;-79
2023/08/20 08:59:32;;;;;;;6.53;3.40;;;;;;;29.59;37.89;94983.06;4963566;28;20223;-79
2023/08/20 09:01:57;;;;;;;5.20;3.75;;;;;;;30.16;37.56;95041.53;4984443;28;20240;-84
2023/08/20 09:04:24;;;;;;;5.22;3.83;;;;;;;29.75;37.39;94994.16;4987159;28;20177;-83
2023/08/20 09:06:51;;;;;;;6.07;3.60;;;;;;;29.40;37.93;94963.72;4983394;28;20169;-84
2023/08/20 09:09:18;;;;;;;7.43;4.00;;;;;;;30.35;38.78;95093.53;4972892;28;20186;-85
2023/08/20 09:11:45;;;;;;;7.47;3.45;;;;;;;29.83;38.33;95015.03;4983441;28;20257;-84
2023/08/20 09:14:30;;;;;;;5.85;3.83;;;;;;;30.25;37.02;95077.59;4970129;28;20181;-84
2023/08/20 09:16:58;;;;;;;5.00;3.22;;;;;;;30.37;37.47;95102.13;4989169;28;20279;-85
2023/08/20 09:19:24;;;;;;;8.82;4.00;;;;;;;30.55;37.29;95100.09;4990222;28;20181;-82
2023/08/20 09:21:52;;;;;;;5.63;3.80;;;;;;;30.19;36.37;95030.78;4974093;28;20208;-80
2023/08/20 09:24:25;;;;;;;3.13;2.70;;;;;;;29.82;36.83;95009.94;4972584;28;20181;-81
2023/08/20 09:26:58;;;;;;;4.38;3.10;;;;;;;30.16;35.61;95061.34;4986234;28;20295;-80
2023/08/20 09:29:24;;;;;;;4.32;3.22;;;;;;;29.84;36.88;95005.75;4990081;28;20181;-81
2023/08/20 09:31:49;;;;;;;4.80;3.30;;;;;;;30.46;36.24;95094.69;4987575;28;20211;-81
2023/08/20 09:34:15;;;;;;;5.53;3.67;;;;;;;29.95;37.40;95023.28;4993252;28;20286;-81
2023/08/20 09:36:48;;;;;;;5.38;3.63;;;;;;;29.74;38.64;95006.16;4974087;28;20188;-81
2023/08/20 09:39:13;;;;;;;6.05;3.42;;;;;;;29.97;36.93;95017.53;4972581;28;20650;-80
2023/08/20 09:41:39;;;;;;;3.95;3.08;;;;;;;29.93;37.23;94997.56;4992452;28;20174;-80
2023/08/20 09:44:07;;;;;;;4.38;3.47;;;;;;;30.22;36.40;95041.00;4993643;28;20189;-81
2023/08/20 09:46:38;;;;;;;6.82;3.70;;;;;;;29.95;36.77;95006.19;4993677;28;20199;-78
2023/08/20 09:49:07;;;;;;;5.72;3.08;;;;;;;29.85;36.20;94976.69;4976467;28;20188;-81
2023/08/20 09:51:35;;;;;;;4.47;3.35;;;;;;;30.12;36.11;95033.25;4991966;28;20638;-79
2023/08/20 09:54:14;;;;;;;4.25;3.00;;;;;;;30.34;36.36;95081.06;4993892;28;20189;-79
2023/08/20 09:56:40;;;;;;;3.60;2.85;;;;;;;29.68;36.00;94952.38;4993648;28;20169;-79
2023/08/20 09:59:07;;;;;;;3.75;2.75;;;;;;;30.43;36.83;95051.91;4993774;28;20629;-79
2023/08/20 10:01:32;;;;;;;3.17;2.88;;;;;;;30.20;35.08;95013.38;4993600;28;20256;-79
2023/08/20 10:03:59;;;;;;;6.32;2.65;;;;;;;29.94;34.66;94959.25;4993989;28;20256;-79
2023/08/20 10:06:26;;;;;;;2.88;2.58;;;;;;;30.11;34.90;94998.25;4959417;28;20181;-81
2023/08/20 10:08:53;;;;;;;4.78;2.90;;;;;;;30.25;35.33;95005.03;4992890;28;20522;-80
2023/08/20 10:11:19;;;;;;;3.00;2.42;;;;;;;29.83;34.04;94958.03;4993243;28;20248;-79
2023/08/20 10:13:45;;;;;;;4.72;2.88;;;;;;;29.97;34.95;95002.03;4993410;28;20276;-79
2023/08/20 10:16:20;;;;;;;4.78;2.67;;;;;;;30.54;34.42;95079.47;4993084;28;20598;-79
2023/08/20 10:18:47;;;;;;;6.40;2.97;;;;;;;30.65;34.53;95080.69;4992782;28;20569;-79
2023/08/20 10:21:13;;;;;;;3.55;2.50;;;;;;;30.30;34.24;95050.22;4992666;28;20248;-79
2023/08/20 10:23:42;;;;;;;3.85;2.75;;;;;;;29.45;34.76;94992.56;4993009;28;20608;-81
2023/08/20 10:26:10;;;;;;;10.75;2.90;;;;;;;29.85;35.46;95031.78;4990677;28;20212;-77
2023/08/20 10:28:36;;;;;;;5.65;2.95;;;;;;;29.44;35.37;94942.94;4991233;28;20181;-79
2023/08/20 10:31:10;;;;;;;3.10;2.63;;;;;;;30.42;34.47;95076.69;4976021;28;20177;-80
2023/08/20 10:33:37;;;;;;;4.38;2.50;;;;;;;30.44;34.64;95085.31;4975167;28;20187;-81
2023/08/20 10:36:13;;;;;;;7.07;2.58;;;;;;;30.45;35.07;95070.56;4974548;28;20181;-79
2023/08/20 10:38:39;;;;;;;5.32;2.80;;;;;;;30.58;34.72;95081.22;4974842;28;20179;-78
2023/08/20 10:41:10;;;;;;;4.65;2.47;;;;;;;30.27;34.88;95048.94;4991444;28;20197;-79
2023/08/20 10:43:49;;;;;;;3.03;2.70;;;;;;;30.08;34.86;95026.91;4992485;28;20236;-81
2023/08/20 10:46:30;;;;;;;16.35;3.47;;;;;;;30.02;36.42;95017.34;4990568;28;20723;-80
2023/08/20 10:48:57;;;;;;;2.55;2.30;;;;;;;29.64;36.05;94939.47;4992387;28;20189;-80
2023/08/20 10:51:32;;;;;;;3.03;2.78;;;;;;;30.53;34.88;95050.75;4973035;28;20176;-79
2023/08/20 10:54:00;;;;;;;3.22;2.40;;;;;;;30.48;34.48;95056.31;4991689;28;20177;-79
2023/08/20 10:56:46;;;;;;;3.40;2.60;;;;;;;30.41;34.99;95058.78;4972900;28;20188;-80
2023/08/20 10:59:16;;;;;;;3.33;2.28;;;;;;;30.35;35.08;95059.00;4972603;28;20653;-79
2023/08/20 11:01:47;;;;;;;4.32;2.72;;;;;;;30.16;35.29;95026.03;4988840;28;20185;-79
2023/08/20 11:04:15;;;;;;;4.70;3.05;;;;;;;30.09;35.03;95003.25;4988537;28;20169;-80
2023/08/20 11:06:41;;;;;;;2.40;2.17;;;;;;;30.11;34.47;95014.56;4992294;28;20166;-80
2023/08/20 11:09:10;;;;;;;3.83;2.20;;;;;;;30.27;35.15;95031.88;4989945;28;20173;-81
2023/08/20 11:11:38;;;;;;;2.92;2.38;;;;;;;29.92;35.23;94977.78;4987744;28;20165;-81
2023/08/20 11:14:11;;;;;;;3.22;2.17;;;;;;;30.41;34.81;95032.41;4990268;28;20593;-81
2023/08/20 11:16:37;;;;;;;2.90;2.53;;;;;;;29.87;34.22;94931.00;4984344;28;20166;-81
2023/08/20 11:19:08;;;;;;;4.30;2.75;;;;;;;30.45;34.35;95025.16;4973807;28;20878;-80
2023/08/20 11:21:34;;;;;;;6.90;2.50;;;;;;;29.93;34.30;94935.88;4991732;28;20192;-79
2023/08/20 11:24:01;;;;;;;2.58;2.30;;;;;;;30.34;34.26;94988.66;4988308;28;20181;-79
2023/08/20 11:26:26;;;;;;;2.92;2.20;;;;;;;30.65;34.34;95023.59;4991593;28;20296;-80
2023/08/20 11:28:52;;;;;;;3.00;2.45;;;;;;;30.64;33.83;95016.56;4974246;28;20784;-79
2023/08/20 11:31:17;;;;;;;7.30;2.40;;;;;;;30.62;33.54;95011.44;4984555;28;20288;-79